createdAt,value
2022-09-07T00:04:09.505Z,2.60
2022-09-07T00:09:11.509Z,3.10
2022-09-07T00:14:13.280Z,2.60
2022-09-07T00:19:14.861Z,2.60
2022-09-07T00:24:17.286Z,2.20
2022-09-07T00:29:18.892Z,2.10
2022-09-07T00:34:20.537Z,2.30
2022-09-07T00:39:22.088Z,2.70
2022-09-07T00:44:42.232Z,2.60
2022-09-07T00:49:45.016Z,2.20
2022-09-07T00:54:49.057Z,2.00
2022-09-07T00:59:52.038Z,2.20
2022-09-07T01:05:09.591Z,2.20
2022-09-07T01:10:11.534Z,1.90
2022-09-07T01:15:13.102Z,2.00
2022-09-07T01:20:15.435Z,2.40
2022-09-07T01:25:29.361Z,2.40
2022-09-07T01:30:33.201Z,2.20
2022-09-07T01:35:48.658Z,2.20
2022-09-07T01:41:00.831Z,2.60
2022-09-07T01:46:04.237Z,2.80
2022-09-07T01:51:05.935Z,2.30
2022-09-07T01:56:13.089Z,2.40
2022-09-07T02:01:24.593Z,1.90
2022-09-07T02:06:55.743Z,1.80
2022-09-07T02:11:57.408Z,2.40
2022-09-07T02:17:14.573Z,3.00
2022-09-07T02:22:17.120Z,2.90
2022-09-07T02:27:21.945Z,2.40
2022-09-07T02:32:23.567Z,2.50
2022-09-07T02:37:27.168Z,2.50
2022-09-07T02:42:30.984Z,2.60
2022-09-07T02:47:58.592Z,2.20
2022-09-07T02:53:00.159Z,2.50
2022-09-07T02:58:19.576Z,2.70
2022-09-07T03:03:23.579Z,2.60
2022-09-07T03:08:28.753Z,2.50
2022-09-07T03:13:30.341Z,2.50
2022-09-07T03:18:31.993Z,2.30
2022-09-07T03:23:34.136Z,2.00
2022-09-07T03:28:35.773Z,2.50
2022-09-07T03:33:37.326Z,2.40
2022-09-07T03:38:38.856Z,2.20
2022-09-07T03:43:40.467Z,2.10
2022-09-07T03:48:41.986Z,2.90
2022-09-07T03:53:45.044Z,2.80
2022-09-07T03:58:47.384Z,2.90
2022-09-07T04:03:49.335Z,2.80
2022-09-07T04:08:50.844Z,3.40
2022-09-07T04:13:52.567Z,2.90
2022-09-07T04:18:59.345Z,3.40
2022-09-07T04:24:01.046Z,2.40
2022-09-07T04:29:03.160Z,3.30
2022-09-07T04:34:05.404Z,3.10
2022-09-07T04:39:07.016Z,2.40
2022-09-07T04:44:13.617Z,2.90
2022-09-07T04:49:18.240Z,2.80
2022-09-07T04:54:19.788Z,2.40
2022-09-07T04:59:21.453Z,3.20
2022-09-07T05:04:23.007Z,4.10
2022-09-07T05:09:24.591Z,6.40
2022-09-07T05:14:26.189Z,3.00
2022-09-07T05:19:28.082Z,2.60
2022-09-07T05:24:29.696Z,2.60
2022-09-07T05:34:53.718Z,3.20
2022-09-07T05:39:57.211Z,3.10
2022-09-07T05:44:58.858Z,2.70
2022-09-07T05:50:00.414Z,2.80
2022-09-07T05:55:19.384Z,3.50
2022-09-07T06:00:23.822Z,13.60
2022-09-07T06:05:25.529Z,4.00
2022-09-07T06:15:44.356Z,3.60
2022-09-07T06:20:46.119Z,3.60
2022-09-07T06:25:48.189Z,2.90
2022-09-07T06:30:49.776Z,3.60
2022-09-07T06:35:54.888Z,3.30
2022-09-07T06:51:44.091Z,4.90
2022-09-07T06:56:45.768Z,3.70
2022-09-07T07:01:47.393Z,4.80
2022-09-07T07:06:48.933Z,4.90
2022-09-07T07:11:50.705Z,4.20
2022-09-07T07:16:52.251Z,4.60
2022-09-07T07:27:16.011Z,5.80
2022-09-07T07:32:17.642Z,4.60
2022-09-07T07:37:19.199Z,4.30
2022-09-07T07:42:21.277Z,4.80
2022-09-07T07:47:22.853Z,4.60
2022-09-07T07:57:46.854Z,4.80
2022-09-07T08:02:48.496Z,5.40
2022-09-07T08:07:50.116Z,5.80
2022-09-07T08:12:53.037Z,5.70
2022-09-07T08:17:54.523Z,4.40
2022-09-07T08:22:56.086Z,4.70
2022-09-07T08:27:57.586Z,4.30
2022-09-07T08:32:59.332Z,4.90
2022-09-07T08:38:00.816Z,5.70
2022-09-07T08:43:08.664Z,5.30
2022-09-07T08:48:13.164Z,5.00
2022-09-07T08:53:19.608Z,5.20
2022-09-07T08:58:55.060Z,5.70
2022-09-07T09:09:18.128Z,4.40
2022-09-07T09:14:53.026Z,5.00
2022-09-07T09:20:06.578Z,5.20
2022-09-07T09:25:21.618Z,5.20
2022-09-07T09:30:24.267Z,5.60
2022-09-07T09:35:31.668Z,5.40
2022-09-07T09:40:34.075Z,5.50
2022-09-07T09:56:23.026Z,6.20
2022-09-07T10:01:30.952Z,7.50
2022-09-07T10:06:32.914Z,5.70
2022-09-07T10:17:14.163Z,5.80
2022-09-07T10:22:33.160Z,5.40
2022-09-07T10:27:36.777Z,6.00
2022-09-07T10:32:58.257Z,6.10
2022-09-07T10:38:19.437Z,4.40
2022-09-07T10:43:26.774Z,6.20
2022-09-07T10:48:31.267Z,5.70
2022-09-07T10:53:42.766Z,5.90
2022-09-07T11:04:15.600Z,5.20
2022-09-07T11:09:37.425Z,5.70
2022-09-07T11:14:43.219Z,5.10
2022-09-07T11:20:03.576Z,5.20
2022-09-07T11:30:31.448Z,4.70
2022-09-07T11:35:48.527Z,5.00
2022-09-07T11:41:10.423Z,5.30
2022-09-07T11:46:17.620Z,4.70
2022-09-07T11:51:19.274Z,4.90
2022-09-07T11:56:27.257Z,4.80
2022-09-07T12:01:34.161Z,4.50
2022-09-07T12:06:35.649Z,4.60
2022-09-07T12:11:55.122Z,3.80
2022-09-07T12:17:05.540Z,4.40
2022-09-07T12:22:18.811Z,3.70
2022-09-07T12:27:20.359Z,4.00
2022-09-07T12:32:57.395Z,4.20
2022-09-07T12:38:00.823Z,4.00
2022-09-07T12:43:14.681Z,4.80
2022-09-07T12:48:16.293Z,3.80
2022-09-07T12:53:37.616Z,3.80
2022-09-07T12:58:43.458Z,3.70
2022-09-07T13:03:59.143Z,3.60
2022-09-07T13:09:09.899Z,4.10
2022-09-07T13:14:14.588Z,4.00
2022-09-07T13:19:36.586Z,4.10
2022-09-07T13:24:49.253Z,4.50
2022-09-07T13:29:56.675Z,3.90
2022-09-07T13:35:10.574Z,3.70
2022-09-07T13:40:16.169Z,3.60
2022-09-07T13:45:36.403Z,3.80
2022-09-07T13:50:42.121Z,4.00
2022-09-07T13:55:56.099Z,4.00
2022-09-07T14:00:57.594Z,4.30
2022-09-07T14:06:18.347Z,3.90
2022-09-07T14:11:21.297Z,3.70
2022-09-07T14:16:22.931Z,3.90
2022-09-07T14:21:24.734Z,3.70
2022-09-07T14:26:27.377Z,4.00
2022-09-07T14:31:28.959Z,3.80
2022-09-07T14:36:48.001Z,4.10
2022-09-07T14:41:50.037Z,3.60
2022-09-07T14:46:56.392Z,4.50
2022-09-07T14:52:00.616Z,3.70
2022-09-07T14:57:05.657Z,3.90
2022-09-07T15:02:24.178Z,3.50
2022-09-07T15:07:39.060Z,3.50
2022-09-07T15:12:41.922Z,3.80
2022-09-07T15:17:44.269Z,4.10
2022-09-07T15:22:46.201Z,4.20
2022-09-07T15:27:48.097Z,3.90
2022-09-07T15:32:49.765Z,4.10
2022-09-07T15:38:59.458Z,4.10
2022-09-07T15:43:20.344Z,4.10
2022-09-07T15:48:31.901Z,4.20
2022-09-07T15:58:57.222Z,4.40
2022-09-07T16:03:59.230Z,4.00
2022-09-07T16:09:01.485Z,4.30
2022-09-07T16:14:04.145Z,4.40
2022-09-07T16:19:07.192Z,4.20
2022-09-07T16:24:09.612Z,4.90
2022-09-07T16:29:11.195Z,5.50
2022-09-07T16:34:14.248Z,5.10
2022-09-07T16:39:16.216Z,5.10
2022-09-07T16:44:18.200Z,5.60
2022-09-07T16:49:20.166Z,6.00
2022-09-07T16:54:21.668Z,6.00
2022-09-07T16:59:26.835Z,6.00
2022-09-07T17:04:29.188Z,6.50
2022-09-07T17:09:30.792Z,5.60
2022-09-07T17:14:32.297Z,6.10
2022-09-07T17:19:34.578Z,5.70
2022-09-07T17:24:36.205Z,6.00
2022-09-07T17:29:37.968Z,6.20
2022-09-07T17:34:39.520Z,5.60
2022-09-07T17:39:41.149Z,6.10
2022-09-07T17:44:42.810Z,6.60
2022-09-07T17:49:45.023Z,7.10
2022-09-07T17:54:47.151Z,7.00
2022-09-07T18:05:11.467Z,8.40
2022-09-07T18:10:13.503Z,6.70
2022-09-07T18:15:16.107Z,7.20
2022-09-07T18:20:19.005Z,7.10
2022-09-07T18:25:20.642Z,7.50
2022-09-07T18:30:22.460Z,8.00
2022-09-07T18:35:24.478Z,9.40
2022-09-07T18:40:25.997Z,8.40
2022-09-07T18:45:27.958Z,7.80
2022-09-07T18:50:31.834Z,7.60
2022-09-07T18:55:33.743Z,7.80
2022-09-07T19:00:35.367Z,7.80
2022-09-07T19:05:53.303Z,8.10
2022-09-07T19:10:55.005Z,6.70
2022-09-07T19:16:02.818Z,7.80
2022-09-07T19:21:11.403Z,10.30
2022-09-07T19:26:15.013Z,10.00
2022-09-07T19:31:16.755Z,10.10
2022-09-07T19:36:18.241Z,10.70
2022-09-07T19:41:19.729Z,10.50
2022-09-07T19:46:24.808Z,8.90
2022-09-07T19:51:26.652Z,8.10
2022-09-07T19:56:28.236Z,7.70
2022-09-07T20:01:30.241Z,9.00
2022-09-07T20:06:35.496Z,7.70
2022-09-07T20:11:37.002Z,8.10
2022-09-07T20:16:39.677Z,8.50
2022-09-07T20:21:41.513Z,7.30
2022-09-07T20:26:43.042Z,9.60
2022-09-07T20:31:44.804Z,8.40
2022-09-07T20:36:48.662Z,8.40
2022-09-07T20:41:50.462Z,7.20
2022-09-07T20:46:52.104Z,6.90
2022-09-07T20:51:53.697Z,7.00
2022-09-07T20:56:55.242Z,6.80
2022-09-07T21:01:56.930Z,6.20
2022-09-07T21:06:58.717Z,6.10
2022-09-07T21:12:00.208Z,6.70
2022-09-07T21:17:01.692Z,6.50
2022-09-07T21:22:03.465Z,5.30
2022-09-07T21:27:04.979Z,5.70
2022-09-07T21:32:06.723Z,5.70
2022-09-07T21:37:08.234Z,5.70
2022-09-07T21:42:09.700Z,5.80
2022-09-07T21:47:11.375Z,6.30
2022-09-07T21:52:12.917Z,5.60
2022-09-07T21:57:14.604Z,5.90
2022-09-07T22:02:16.465Z,5.80
2022-09-07T22:07:18.659Z,6.60
2022-09-07T22:12:20.141Z,6.30
2022-09-07T22:17:21.700Z,5.50
2022-09-07T22:22:23.276Z,5.90
2022-09-07T22:27:24.831Z,6.60
2022-09-07T22:32:26.381Z,6.10
2022-09-07T22:37:27.880Z,6.50
2022-09-07T22:42:29.436Z,6.40
2022-09-07T22:47:30.997Z,5.90
2022-09-07T22:52:32.509Z,6.30
2022-09-07T22:57:34.085Z,6.60
2022-09-07T23:02:35.689Z,7.50
2022-09-07T23:07:37.221Z,7.20
2022-09-07T23:12:40.587Z,6.50
2022-09-07T23:17:42.117Z,7.40
2022-09-07T23:22:44.235Z,7.20
2022-09-07T23:27:45.942Z,7.30
2022-09-07T23:32:47.678Z,7.50
2022-09-07T23:37:49.196Z,7.40
2022-09-07T23:42:50.719Z,8.10
2022-09-07T23:47:52.362Z,8.00
2022-09-07T23:52:53.878Z,8.50
2022-09-07T23:57:55.677Z,7.80
